Accueil
METAR-TAF:

METAR-TAF

Aéroports :

Woensdrecht, Pays-Bas

latitude: 51-27N, longitude: 004-20E, altitude: 20 m

Observation

Le bulletin a été fait il y a 38 minutes, à 15:25 UTC
Vent 2 kt de sud-ouest
Température 3°C
Humidité 75%
Pression 1020 hPa
Visibilité 10 km ou plus
Ciel couvert à une hauteur de 25000 ft

METAR: EHWO 211525Z AUTO 22002KT 9999 OVC250 03/M01 Q1020 BLU

Heure: 17:03 (16:03 UTC)

Prévision

Le bulletin a été fait il y a 7 heures et 1 minutes, à 09:02 UTC
Prévision valable du 21 à 10 UTC au 21 à 22 UTC
Vent 2 kt de direction variable
Visibilité 10 km ou plus
pas de nuages en-dessous de 1500 mètres et pas de cumulonimbus.
Evoluant progressivement
du 21 à 10 UTC au 21 à 12 UTC
Vent 5 kt de sud/sud-ouest

TAF: EHWO 210902Z 2110/2122 VRB02KT CAVOK BECMG 2110/2112 20005KT

Observations et prévisions météorologiques de plus de 4000 aéroports (messages METAR et TAF).

Les stations disponibles sont représentées par des disques jaunes et rouges sur la carte.

Passer la souris dessus pour voir le nom de la station.

Cliquer dessus pour voir les observations et prévisions météorologiques.

Pour changer de carte: cliquez sur les boutons verts avec une croix noire pour zoomer, sur le bouton vert avec un tiret pour effectuer un zoom arrière, ou sur les flèches vertes pour les cartes adjacentes.


METAR-TAF: